createdAt,value
2024-05-09T00:00:36.448Z,14.78
2024-05-09T00:03:42.856Z,14.67
2024-05-09T00:06:45.651Z,14.82
2024-05-09T00:09:49.128Z,14.86
2024-05-09T00:12:51.751Z,14.79
2024-05-09T00:15:54.438Z,14.77
2024-05-09T00:18:57.136Z,14.80
2024-05-09T00:21:59.808Z,14.86
2024-05-09T00:25:02.498Z,14.88
2024-05-09T00:28:06.156Z,14.81
2024-05-09T00:31:08.792Z,14.76
2024-05-09T00:34:11.596Z,14.77
2024-05-09T00:37:14.219Z,14.71
2024-05-09T00:40:26.513Z,14.64
2024-05-09T00:43:33.804Z,14.57
2024-05-09T00:46:36.604Z,14.71
2024-05-09T00:49:39.517Z,14.70
2024-05-09T00:52:43.604Z,14.66
2024-05-09T00:55:47.341Z,14.66
2024-05-09T00:58:51.129Z,14.80
2024-05-09T01:01:53.957Z,14.82
2024-05-09T01:04:56.878Z,14.80
2024-05-09T01:07:59.704Z,14.78
2024-05-09T01:11:02.540Z,14.77
2024-05-09T01:14:05.386Z,14.74
2024-05-09T01:17:08.135Z,14.74
2024-05-09T01:20:19.574Z,14.72
2024-05-09T01:23:22.949Z,14.72
2024-05-09T01:26:25.665Z,14.72
2024-05-09T01:29:28.427Z,14.71
2024-05-09T01:32:31.242Z,14.69
2024-05-09T01:35:34.045Z,14.63
2024-05-09T01:38:36.851Z,14.61
2024-05-09T01:41:39.768Z,14.69
2024-05-09T01:44:43.547Z,14.66
2024-05-09T01:47:46.414Z,14.63
2024-05-09T01:50:49.201Z,14.59
2024-05-09T01:53:54.674Z,14.52
2024-05-09T01:56:57.492Z,14.42
2024-05-09T02:00:00.262Z,14.29
2024-05-09T02:03:03.006Z,14.34
2024-05-09T02:06:05.917Z,14.32
2024-05-09T02:09:09.288Z,14.33
2024-05-09T02:12:12.105Z,14.26
2024-05-09T02:15:15.938Z,14.16
2024-05-09T02:18:20.637Z,14.06
2024-05-09T02:21:23.718Z,13.99
2024-05-09T02:24:26.340Z,13.91
2024-05-09T02:27:29.028Z,13.86
2024-05-09T02:30:39.366Z,13.84
2024-05-09T02:33:44.511Z,13.84
2024-05-09T02:36:47.141Z,13.84
2024-05-09T02:39:49.729Z,13.78
2024-05-09T02:42:52.342Z,13.75
2024-05-09T02:45:54.959Z,13.82
2024-05-09T02:48:57.748Z,13.81
2024-05-09T02:52:00.510Z,13.75
2024-05-09T02:55:03.188Z,13.68
2024-05-09T02:58:08.928Z,13.65
2024-05-09T03:01:11.596Z,13.59
2024-05-09T03:04:14.621Z,13.55
2024-05-09T03:07:19.752Z,13.52
2024-05-09T03:10:28.315Z,13.52
2024-05-09T03:13:31.613Z,13.53
2024-05-09T03:16:40.245Z,13.49
2024-05-09T03:19:42.847Z,13.48
2024-05-09T03:22:45.531Z,13.46
2024-05-09T03:25:48.227Z,13.47
2024-05-09T03:28:50.904Z,13.44
2024-05-09T03:31:53.688Z,13.37
2024-05-09T03:34:56.439Z,13.32
2024-05-09T03:37:59.083Z,13.26
2024-05-09T03:41:01.772Z,13.24
2024-05-09T03:44:04.987Z,13.31
2024-05-09T03:47:07.743Z,13.29
2024-05-09T03:50:18.129Z,13.29
2024-05-09T03:53:28.248Z,13.34
2024-05-09T03:56:31.058Z,13.41
2024-05-09T03:59:33.783Z,13.44
2024-05-09T04:02:36.579Z,13.40
2024-05-09T04:05:44.213Z,13.46
2024-05-09T04:08:48.512Z,13.42
2024-05-09T04:11:51.388Z,13.50
2024-05-09T04:14:54.060Z,13.58
2024-05-09T04:17:56.935Z,13.59
2024-05-09T04:20:59.796Z,13.64
2024-05-09T04:24:02.580Z,13.74
2024-05-09T04:27:05.423Z,13.82
2024-05-09T04:30:12.459Z,13.95
2024-05-09T04:33:21.951Z,14.21
2024-05-09T04:36:24.705Z,14.55
2024-05-09T04:39:27.601Z,14.78
2024-05-09T04:42:30.155Z,14.89
2024-05-09T04:45:32.776Z,15.14
2024-05-09T04:48:35.489Z,15.46
2024-05-09T04:51:38.171Z,15.53
2024-05-09T04:54:40.812Z,15.52
2024-05-09T04:57:43.403Z,15.51
2024-05-09T05:00:46.136Z,15.48
2024-05-09T05:03:49.056Z,15.39
2024-05-09T05:06:51.805Z,15.22
2024-05-09T05:09:54.518Z,15.25
2024-05-09T05:13:15.460Z,15.31
2024-05-09T05:16:18.083Z,15.30
2024-05-09T05:19:20.832Z,15.44
2024-05-09T05:22:23.543Z,15.47
2024-05-09T05:25:26.100Z,15.58
2024-05-09T05:28:28.736Z,15.50
2024-05-09T05:31:31.366Z,15.51
2024-05-09T05:34:34.052Z,15.52
2024-05-09T05:37:36.675Z,15.56
2024-05-09T05:40:40.531Z,15.67
2024-05-09T05:43:44.090Z,15.82
2024-05-09T05:46:46.755Z,15.99
2024-05-09T05:49:49.458Z,15.90
2024-05-09T05:52:52.226Z,16.13
2024-05-09T05:55:54.909Z,15.95
2024-05-09T05:58:57.612Z,16.25
2024-05-09T06:02:00.317Z,16.40
2024-05-09T06:05:03.282Z,16.47
2024-05-09T06:08:06.526Z,16.41
2024-05-09T06:11:09.252Z,16.48
2024-05-09T06:14:11.965Z,16.63
2024-05-09T06:17:14.690Z,16.68
2024-05-09T06:20:23.882Z,16.52
2024-05-09T06:23:34.793Z,16.72
2024-05-09T06:26:42.200Z,16.79
2024-05-09T06:29:44.926Z,16.98
2024-05-09T06:32:47.635Z,16.65
2024-05-09T06:35:50.544Z,16.88
2024-05-09T06:38:54.317Z,17.11
2024-05-09T06:41:57.019Z,17.31
2024-05-09T06:44:59.747Z,17.57
2024-05-09T06:48:03.089Z,17.81
2024-05-09T06:51:06.420Z,18.26
2024-05-09T06:54:09.500Z,18.54
2024-05-09T06:57:12.162Z,18.22
2024-05-09T07:00:22.820Z,18.39
2024-05-09T07:03:33.254Z,18.24
2024-05-09T07:06:37.499Z,18.31
2024-05-09T07:09:40.833Z,18.29
2024-05-09T07:12:43.555Z,18.33
2024-05-09T07:15:46.454Z,18.04
2024-05-09T07:18:55.065Z,18.24
2024-05-09T07:21:59.855Z,18.33
2024-05-09T07:25:02.947Z,18.38
2024-05-09T07:28:09.814Z,18.02
2024-05-09T07:31:12.590Z,18.03
2024-05-09T07:34:19.074Z,17.83
2024-05-09T07:37:22.232Z,17.78
2024-05-09T07:40:32.931Z,17.72
2024-05-09T07:43:41.121Z,17.78
2024-05-09T07:47:48.011Z,17.79
2024-05-09T07:53:37.779Z,17.94
2024-05-09T07:56:38.441Z,17.96
2024-05-09T07:59:41.305Z,17.92
2024-05-09T08:02:43.984Z,17.87
2024-05-09T08:05:47.012Z,17.65
2024-05-09T08:08:49.920Z,17.83
2024-05-09T08:11:52.893Z,17.84
2024-05-09T08:14:56.467Z,17.95
2024-05-09T08:18:00.259Z,18.10
2024-05-09T08:21:03.205Z,18.21
2024-05-09T08:24:06.200Z,18.20
2024-05-09T08:27:09.092Z,18.30
2024-05-09T08:30:18.988Z,18.36
2024-05-09T08:33:28.236Z,18.51
2024-05-09T08:36:31.667Z,18.53
2024-05-09T08:39:34.395Z,18.53
2024-05-09T08:42:43.534Z,18.52
2024-05-09T08:45:47.144Z,18.46
2024-05-09T08:48:52.711Z,18.56
2024-05-09T08:51:55.716Z,18.72
2024-05-09T08:54:58.667Z,18.94
2024-05-09T08:58:03.778Z,19.05
2024-05-09T09:01:08.036Z,18.95
2024-05-09T09:04:13.154Z,18.97
2024-05-09T09:07:17.860Z,19.00
2024-05-09T09:10:29.691Z,19.14
2024-05-09T09:13:34.908Z,19.31
2024-05-09T09:16:37.645Z,19.45
2024-05-09T09:19:40.488Z,19.38
2024-05-09T09:22:44.725Z,19.30
2024-05-09T09:25:47.746Z,19.31
2024-05-09T09:28:50.807Z,19.19
2024-05-09T09:32:00.020Z,19.42
2024-05-09T09:35:02.891Z,19.57
2024-05-09T09:38:07.692Z,19.65
2024-05-09T09:41:13.652Z,19.58
2024-05-09T09:44:18.311Z,19.58
2024-05-09T09:47:21.993Z,19.73
2024-05-09T09:50:33.315Z,19.70
2024-05-09T09:53:38.571Z,19.89
2024-05-09T09:56:43.358Z,19.92
2024-05-09T09:59:49.165Z,20.11
2024-05-09T10:02:51.912Z,20.20
2024-05-09T10:05:55.847Z,20.18
2024-05-09T10:08:58.840Z,20.23
2024-05-09T10:12:11.874Z,20.35
2024-05-09T10:15:19.828Z,20.56
2024-05-09T10:18:29.598Z,20.52
2024-05-09T10:21:34.076Z,20.79
2024-05-09T10:24:53.549Z,20.82
2024-05-09T10:27:56.460Z,20.96
2024-05-09T10:31:03.615Z,21.06
2024-05-09T10:34:06.777Z,20.95
2024-05-09T10:37:10.608Z,20.97
2024-05-09T10:40:23.478Z,21.13
2024-05-09T10:43:31.973Z,21.23
2024-05-09T10:46:35.519Z,21.17
2024-05-09T10:49:39.239Z,21.37
2024-05-09T10:52:42.719Z,21.29
2024-05-09T10:55:59.122Z,21.31
2024-05-09T10:59:05.067Z,21.17
2024-05-09T11:02:07.994Z,21.41
2024-05-09T11:05:11.611Z,21.64
2024-05-09T11:08:16.287Z,21.87
2024-05-09T11:11:20.695Z,21.89
2024-05-09T11:14:23.990Z,22.13
2024-05-09T11:17:27.689Z,21.98
2024-05-09T11:20:38.696Z,22.23
2024-05-09T11:23:42.039Z,22.24
2024-05-09T11:29:47.965Z,22.50
2024-05-09T11:32:50.776Z,22.92
2024-05-09T11:35:53.605Z,23.00
2024-05-09T11:38:56.329Z,23.01
2024-05-09T11:41:59.055Z,23.21
2024-05-09T11:45:01.814Z,23.61
2024-05-09T11:48:05.096Z,23.77
2024-05-09T11:51:07.958Z,23.82
2024-05-09T11:54:10.711Z,23.94
2024-05-09T11:57:13.707Z,23.91
2024-05-09T12:00:24.566Z,24.26
2024-05-09T12:03:32.122Z,25.63
2024-05-09T12:06:35.196Z,25.54
2024-05-09T12:09:38.088Z,26.35
2024-05-09T12:12:40.781Z,27.19
2024-05-09T12:15:43.532Z,26.77
2024-05-09T12:18:46.355Z,26.83
2024-05-09T12:21:49.143Z,27.38
2024-05-09T12:24:52.074Z,27.63
2024-05-09T12:27:55.240Z,28.01
2024-05-09T12:30:58.310Z,28.15
2024-05-09T12:34:01.331Z,28.73
2024-05-09T12:37:04.460Z,28.91
2024-05-09T12:40:15.810Z,28.77
2024-05-09T12:43:21.543Z,29.33
2024-05-09T12:46:24.813Z,28.76
2024-05-09T12:49:27.845Z,28.48
2024-05-09T12:52:30.728Z,30.01
2024-05-09T12:55:40.643Z,30.23
2024-05-09T12:58:51.367Z,29.57
2024-05-09T13:01:54.870Z,28.30
2024-05-09T13:04:58.788Z,30.07
2024-05-09T13:08:03.559Z,29.72
2024-05-09T13:11:06.461Z,29.86
2024-05-09T13:14:09.154Z,29.31
2024-05-09T13:17:11.852Z,29.34
2024-05-09T13:20:22.993Z,30.71
2024-05-09T13:23:31.963Z,31.08
2024-05-09T13:26:34.697Z,31.17
2024-05-09T13:29:41.090Z,30.83
2024-05-09T13:32:45.605Z,31.81
2024-05-09T13:35:50.602Z,32.25
2024-05-09T13:38:53.879Z,31.87
2024-05-09T13:41:56.483Z,31.22
2024-05-09T13:44:59.107Z,30.58
2024-05-09T13:48:03.830Z,32.11
2024-05-09T13:51:06.813Z,32.45
2024-05-09T13:54:09.484Z,32.70
2024-05-09T13:57:12.155Z,32.03
2024-05-09T14:00:27.272Z,31.13
2024-05-09T14:03:37.670Z,32.93
2024-05-09T14:06:41.698Z,31.51
2024-05-09T14:09:47.170Z,31.72
2024-05-09T14:12:50.561Z,31.65
2024-05-09T14:15:53.462Z,31.57
2024-05-09T14:18:56.507Z,31.75
2024-05-09T14:21:59.305Z,32.38
2024-05-09T14:25:02.466Z,33.10
2024-05-09T14:28:07.595Z,32.38
2024-05-09T14:31:10.394Z,33.60
2024-05-09T14:34:13.322Z,32.37
2024-05-09T14:37:16.768Z,32.72
2024-05-09T14:40:31.093Z,32.16
2024-05-09T14:43:42.754Z,32.06
2024-05-09T14:46:46.102Z,32.16
2024-05-09T14:49:49.413Z,32.86
2024-05-09T14:52:52.116Z,32.76
2024-05-09T14:55:55.296Z,33.38
2024-05-09T14:58:58.145Z,33.53
2024-05-09T15:02:01.134Z,33.93
2024-05-09T15:05:04.437Z,33.79
2024-05-09T15:08:08.128Z,34.20
2024-05-09T15:11:10.919Z,33.14
2024-05-09T15:14:14.132Z,32.75
2024-05-09T15:17:16.892Z,32.34
2024-05-09T15:20:27.701Z,32.85
2024-05-09T15:23:36.869Z,33.74
2024-05-09T15:26:39.700Z,33.63
2024-05-09T15:29:42.470Z,33.99
2024-05-09T15:32:45.485Z,33.90
2024-05-09T15:35:48.315Z,33.09
2024-05-09T15:38:51.127Z,33.23
2024-05-09T15:41:56.431Z,34.62
2024-05-09T15:45:00.901Z,34.40
2024-05-09T15:48:05.602Z,34.45
2024-05-09T15:51:08.542Z,33.42
2024-05-09T15:54:11.746Z,33.96
2024-05-09T15:57:14.559Z,33.76
2024-05-09T16:00:24.994Z,33.16
2024-05-09T16:03:36.614Z,33.33
2024-05-09T16:06:40.040Z,33.08
2024-05-09T16:09:43.395Z,33.09
2024-05-09T16:12:46.157Z,32.60
2024-05-09T16:15:49.079Z,32.17
2024-05-09T16:18:51.943Z,32.96
2024-05-09T16:21:54.702Z,32.92
2024-05-09T16:24:57.538Z,32.49
2024-05-09T16:28:00.661Z,31.92
2024-05-09T16:31:03.671Z,32.70
2024-05-09T16:34:06.611Z,32.42
2024-05-09T16:37:12.617Z,32.13
2024-05-09T16:40:24.925Z,32.19
2024-05-09T16:43:35.925Z,31.32
2024-05-09T16:46:38.721Z,28.86
2024-05-09T16:49:41.445Z,27.38
2024-05-09T16:52:44.245Z,27.82
2024-05-09T16:55:47.121Z,27.67
2024-05-09T16:58:49.906Z,26.71
2024-05-09T17:01:52.818Z,26.14
2024-05-09T17:04:55.759Z,25.90
2024-05-09T17:07:58.672Z,25.42
2024-05-09T17:11:01.564Z,25.18
2024-05-09T17:14:04.426Z,24.98
2024-05-09T17:17:08.223Z,24.96
2024-05-09T17:20:22.591Z,25.73
2024-05-09T17:23:34.786Z,25.95
2024-05-09T17:26:37.801Z,25.30
2024-05-09T17:29:40.489Z,24.75
2024-05-09T17:32:43.248Z,24.16
2024-05-09T17:35:50.248Z,23.68
2024-05-09T17:38:53.062Z,23.28
2024-05-09T17:41:55.734Z,22.96
2024-05-09T17:44:58.403Z,22.64
2024-05-09T17:48:01.683Z,22.44
2024-05-09T17:51:04.806Z,22.22
2024-05-09T17:54:07.427Z,21.85
2024-05-09T17:57:10.165Z,21.57
2024-05-09T18:00:17.382Z,21.32
2024-05-09T18:03:22.906Z,21.04
2024-05-09T18:06:25.805Z,20.77
2024-05-09T18:09:29.096Z,20.56
2024-05-09T18:12:32.300Z,20.39
2024-05-09T18:15:35.628Z,20.20
2024-05-09T18:18:39.527Z,19.95
2024-05-09T18:21:42.334Z,19.58
2024-05-09T18:24:45.651Z,19.35
2024-05-09T18:27:48.479Z,19.27
2024-05-09T18:30:51.724Z,19.10
2024-05-09T18:33:55.244Z,18.91
2024-05-09T18:37:00.900Z,18.66
2024-05-09T18:40:09.359Z,18.53
2024-05-09T18:43:15.273Z,18.35
2024-05-09T18:46:18.469Z,18.15
2024-05-09T18:49:21.687Z,17.90
2024-05-09T18:52:24.581Z,17.74
2024-05-09T18:55:27.537Z,17.60
2024-05-09T18:58:30.504Z,17.42
2024-05-09T19:01:33.743Z,17.37
2024-05-09T19:04:36.746Z,17.22
2024-05-09T19:07:40.578Z,17.16
2024-05-09T19:10:45.970Z,17.15
2024-05-09T19:13:49.402Z,17.07
2024-05-09T19:16:52.615Z,16.92
2024-05-09T19:19:55.608Z,16.87
2024-05-09T19:22:58.578Z,16.81
2024-05-09T19:26:03.144Z,16.71
2024-05-09T19:29:06.374Z,16.61
2024-05-09T19:32:09.125Z,16.57
2024-05-09T19:35:12.130Z,16.53
2024-05-09T19:38:15.121Z,16.40
2024-05-09T19:41:18.315Z,16.36
2024-05-09T19:44:22.029Z,16.22
2024-05-09T19:47:26.415Z,16.11
2024-05-09T19:50:37.217Z,16.03
2024-05-09T19:53:45.122Z,15.87
2024-05-09T19:56:48.138Z,15.78
2024-05-09T19:59:51.783Z,15.71
2024-05-09T20:02:55.391Z,15.63
2024-05-09T20:05:58.399Z,15.56
2024-05-09T20:09:01.864Z,15.58
2024-05-09T20:12:05.549Z,15.49
2024-05-09T20:15:09.045Z,15.39
2024-05-09T20:18:13.392Z,15.45
2024-05-09T20:21:17.052Z,15.29
2024-05-09T20:24:20.896Z,15.21
2024-05-09T20:27:24.156Z,15.18
2024-05-09T20:30:32.145Z,15.13
2024-05-09T20:33:37.975Z,15.03
2024-05-09T20:36:41.149Z,14.94
2024-05-09T20:39:44.111Z,14.84
2024-05-09T20:42:47.147Z,14.80
2024-05-09T20:45:50.060Z,14.74
2024-05-09T20:48:53.297Z,14.65
2024-05-09T20:51:56.282Z,14.56
2024-05-09T20:54:58.990Z,14.53
2024-05-09T20:58:01.681Z,14.47
2024-05-09T21:01:04.592Z,14.36
2024-05-09T21:04:07.559Z,14.26
2024-05-09T21:07:10.388Z,14.20
2024-05-09T21:10:19.364Z,14.13
2024-05-09T21:13:25.367Z,14.14
2024-05-09T21:16:28.178Z,14.11
2024-05-09T21:19:30.907Z,14.07
2024-05-09T21:22:33.546Z,14.05
2024-05-09T21:25:36.328Z,14.04
2024-05-09T21:28:39.027Z,13.97
2024-05-09T21:31:41.697Z,13.86
2024-05-09T21:34:44.449Z,13.85
2024-05-09T21:37:47.248Z,13.83
2024-05-09T21:40:50.120Z,13.71
2024-05-09T21:43:52.863Z,13.65
2024-05-09T21:46:56.315Z,13.66
2024-05-09T21:49:58.944Z,13.74
2024-05-09T21:53:01.744Z,13.66
2024-05-09T21:56:04.616Z,13.57
2024-05-09T21:59:07.230Z,13.55
2024-05-09T22:02:10.051Z,13.62
2024-05-09T22:05:13.849Z,13.60
2024-05-09T22:08:16.827Z,13.43
2024-05-09T22:11:19.564Z,13.42
2024-05-09T22:14:22.437Z,13.35
2024-05-09T22:17:25.108Z,13.29
2024-05-09T22:20:34.404Z,13.20
2024-05-09T22:23:40.556Z,13.27
2024-05-09T22:26:43.153Z,13.25
2024-05-09T22:29:45.796Z,13.27
2024-05-09T22:32:48.500Z,13.16
2024-05-09T22:35:51.553Z,13.21
2024-05-09T22:38:54.185Z,13.14
2024-05-09T22:41:56.765Z,12.92
2024-05-09T22:44:59.371Z,12.90
2024-05-09T22:48:02.122Z,12.93
2024-05-09T22:51:05.090Z,12.88
2024-05-09T22:54:07.871Z,12.80
2024-05-09T22:57:10.507Z,12.79
2024-05-09T23:00:15.994Z,12.67
2024-05-09T23:03:21.528Z,12.63
2024-05-09T23:06:24.581Z,12.54
2024-05-09T23:09:27.381Z,12.43
2024-05-09T23:12:30.003Z,12.37
2024-05-09T23:15:32.763Z,12.18
2024-05-09T23:18:35.455Z,12.11
2024-05-09T23:21:39.929Z,12.02
2024-05-09T23:24:42.938Z,11.94
2024-05-09T23:27:45.617Z,11.97
2024-05-09T23:30:48.381Z,12.01
2024-05-09T23:33:51.220Z,12.01
2024-05-09T23:36:54.085Z,11.97
2024-05-09T23:39:56.748Z,11.92
2024-05-09T23:42:59.525Z,11.79
2024-05-09T23:46:02.635Z,11.65
2024-05-09T23:49:05.870Z,11.60
2024-05-09T23:52:08.544Z,11.60
2024-05-09T23:55:11.278Z,11.60
2024-05-09T23:58:14.100Z,11.56
